createdAt,value
2019-03-08T00:01:40.925Z,93399.36
2019-03-08T00:04:09.817Z,93396.81
2019-03-08T00:06:38.412Z,93396.98
2019-03-08T00:09:09.021Z,93410.75
2019-03-08T00:11:37.503Z,93420.07
2019-03-08T00:14:06.520Z,93400.84
2019-03-08T00:16:35.100Z,93384.52
2019-03-08T00:19:03.919Z,93385.93
2019-03-08T00:21:32.861Z,93416.37
2019-03-08T00:24:01.540Z,93400.81
2019-03-08T00:26:30.212Z,93406.93
2019-03-08T00:28:59.034Z,93385.69
2019-03-08T00:31:27.758Z,93399.02
2019-03-08T00:33:56.347Z,93413.98
2019-03-08T00:36:25.032Z,93436.06
2019-03-08T00:38:53.653Z,93419.06
2019-03-08T00:41:22.518Z,93428.56
2019-03-08T00:43:51.102Z,93407.77
2019-03-08T00:46:20.014Z,93430.53
2019-03-08T00:48:48.614Z,93431.17
2019-03-08T00:51:17.284Z,93422.84
2019-03-08T00:53:45.860Z,93420.83
2019-03-08T00:56:14.470Z,93417.55
2019-03-08T00:58:43.339Z,93438.89
2019-03-08T01:01:12.273Z,93440.98
2019-03-08T01:03:40.896Z,93432.97
2019-03-08T01:06:09.799Z,93447.89
2019-03-08T01:08:38.365Z,93445.84
2019-03-08T01:11:07.279Z,93446.08
2019-03-08T01:13:35.938Z,93441.72
2019-03-08T01:16:04.870Z,93446.37
2019-03-08T01:18:33.487Z,93436.06
2019-03-08T01:21:02.332Z,93434.27
2019-03-08T01:23:30.945Z,93448.13
2019-03-08T01:25:59.620Z,93429.14
2019-03-08T01:28:28.435Z,93432.73
2019-03-08T01:30:57.192Z,93428.34
2019-03-08T01:33:26.205Z,93446.83
2019-03-08T01:35:54.922Z,93451.00
2019-03-08T01:38:23.713Z,93447.33
2019-03-08T01:40:52.288Z,93453.00
2019-03-08T01:43:20.875Z,93454.34
2019-03-08T01:45:49.521Z,93456.87
2019-03-08T01:48:18.194Z,93449.71
2019-03-08T01:50:46.810Z,93464.59
2019-03-08T01:53:15.387Z,93465.38
2019-03-08T01:55:44.523Z,93459.89
2019-03-08T01:58:13.263Z,93460.00
2019-03-08T02:00:42.163Z,93462.52
2019-03-08T02:03:10.986Z,93462.02
2019-03-08T02:05:39.612Z,93464.88
2019-03-08T02:08:08.215Z,93453.55
2019-03-08T02:10:37.228Z,93460.50
2019-03-08T02:13:06.402Z,93457.39
2019-03-08T02:15:35.186Z,93462.05
2019-03-08T02:18:04.459Z,93466.64
2019-03-08T02:20:33.386Z,93466.41
2019-03-08T02:23:02.005Z,93473.37
2019-03-08T02:25:30.884Z,93481.84
2019-03-08T02:27:59.460Z,93476.17
2019-03-08T02:30:28.138Z,93499.33
2019-03-08T02:32:56.820Z,93479.73
2019-03-08T02:35:25.416Z,93476.42
2019-03-08T02:37:54.143Z,93490.06
2019-03-08T02:40:31.090Z,93480.56
2019-03-08T02:43:00.453Z,93484.03
2019-03-08T02:45:29.334Z,93483.38
2019-03-08T02:47:57.946Z,93489.82
2019-03-08T02:50:26.534Z,93503.42
2019-03-08T02:52:55.375Z,93491.32
2019-03-08T02:55:24.015Z,93492.39
2019-03-08T02:57:53.031Z,93508.34
2019-03-08T03:00:21.656Z,93481.59
2019-03-08T03:02:50.322Z,93509.58
2019-03-08T03:05:19.278Z,93502.91
2019-03-08T03:07:48.107Z,93506.30
2019-03-08T03:10:16.890Z,93498.83
2019-03-08T03:12:45.472Z,93501.35
2019-03-08T03:15:14.300Z,93512.20
2019-03-08T03:17:42.897Z,93515.53
2019-03-08T03:20:11.674Z,93530.47
2019-03-08T03:22:40.580Z,93527.38
2019-03-08T03:25:09.368Z,93533.55
2019-03-08T03:27:38.376Z,93536.89
2019-03-08T03:30:07.735Z,93534.31
2019-03-08T03:32:36.386Z,93532.77
2019-03-08T03:35:05.441Z,93550.44
2019-03-08T03:37:34.287Z,93549.91
2019-03-08T03:40:03.401Z,93552.25
2019-03-08T03:42:32.269Z,93558.08
2019-03-08T03:45:00.976Z,93568.53
2019-03-08T03:47:29.633Z,93554.91
2019-03-08T03:49:58.498Z,93557.81
2019-03-08T03:52:27.378Z,93557.44
2019-03-08T03:54:56.626Z,93561.83
2019-03-08T03:57:25.472Z,93576.47
2019-03-08T03:59:54.099Z,93569.83
2019-03-08T04:02:22.929Z,93579.30
2019-03-08T04:04:51.782Z,93580.70
2019-03-08T04:07:20.364Z,93573.92
2019-03-08T04:09:49.392Z,93574.16
2019-03-08T04:12:17.976Z,93580.17
2019-03-08T04:14:46.607Z,93587.70
2019-03-08T04:17:15.253Z,93595.84
2019-03-08T04:19:43.876Z,93594.45
2019-03-08T04:22:12.743Z,93596.94
2019-03-08T04:24:41.538Z,93599.92
2019-03-08T04:27:10.119Z,93609.75
2019-03-08T04:29:38.939Z,93627.17
2019-03-08T04:32:07.799Z,93624.41
2019-03-08T04:34:36.689Z,93619.84
2019-03-08T04:37:05.545Z,93637.08
2019-03-08T04:39:34.123Z,93621.87
2019-03-08T04:42:02.740Z,93640.59
2019-03-08T04:44:31.799Z,93650.67
2019-03-08T04:47:00.389Z,93654.55
2019-03-08T04:49:28.966Z,93645.69
2019-03-08T04:51:57.559Z,93659.42
2019-03-08T04:54:26.140Z,93673.46
2019-03-08T04:56:54.744Z,93671.80
2019-03-08T04:59:23.552Z,93686.78
2019-03-08T05:01:52.186Z,93683.45
2019-03-08T05:04:20.769Z,93695.86
2019-03-08T05:06:49.376Z,93712.84
2019-03-08T05:09:17.978Z,93715.38
2019-03-08T05:11:46.635Z,93720.79
2019-03-08T05:14:15.258Z,93736.41
2019-03-08T05:16:43.870Z,93723.72
2019-03-08T05:19:12.527Z,93731.46
2019-03-08T05:21:41.206Z,93737.44
2019-03-08T05:24:10.330Z,93742.56
2019-03-08T05:26:38.937Z,93740.19
2019-03-08T05:29:07.772Z,93747.56
2019-03-08T05:31:36.378Z,93754.06
2019-03-08T05:34:05.085Z,93750.59
2019-03-08T05:36:33.951Z,93754.30
2019-03-08T05:39:02.587Z,93754.83
2019-03-08T05:41:31.192Z,93749.45
2019-03-08T05:43:59.787Z,93766.11
2019-03-08T05:46:28.606Z,93772.93
2019-03-08T05:48:57.504Z,93768.42
2019-03-08T05:51:26.082Z,93776.02
2019-03-08T05:53:55.205Z,93778.48
2019-03-08T05:56:23.876Z,93784.62
2019-03-08T05:58:52.466Z,93792.80
2019-03-08T06:01:21.286Z,93798.20
2019-03-08T06:03:51.433Z,93800.35
2019-03-08T06:06:20.098Z,93803.53
2019-03-08T06:08:48.859Z,93819.24
2019-03-08T06:11:17.825Z,93818.27
2019-03-08T06:13:46.433Z,93833.45
2019-03-08T06:16:15.015Z,93828.66
2019-03-08T06:18:43.695Z,93819.05
2019-03-08T06:21:12.352Z,93825.63
2019-03-08T06:23:41.236Z,93838.92
2019-03-08T06:26:09.846Z,93841.30
2019-03-08T06:28:38.447Z,93862.73
2019-03-08T06:31:07.075Z,93860.36
2019-03-08T06:33:35.675Z,93864.08
2019-03-08T06:36:04.467Z,93874.33
2019-03-08T06:38:33.392Z,93869.36
2019-03-08T06:41:02.364Z,93875.67
2019-03-08T06:43:32.049Z,93874.07
2019-03-08T06:46:00.724Z,93892.66
2019-03-08T06:48:29.431Z,93896.98
2019-03-08T06:50:58.061Z,93897.88
2019-03-08T06:53:27.329Z,93909.10
2019-03-08T06:55:56.015Z,93910.64
2019-03-08T06:58:36.310Z,93910.34
2019-03-08T07:01:11.147Z,93921.94
2019-03-08T07:03:39.753Z,93940.82
2019-03-08T07:06:08.527Z,93928.17
2019-03-08T07:08:37.095Z,93950.64
2019-03-08T07:11:05.758Z,93962.13
2019-03-08T07:13:34.346Z,93971.13
2019-03-08T07:16:02.979Z,93971.13
2019-03-08T07:18:31.558Z,93990.36
2019-03-08T07:21:04.982Z,93988.52
2019-03-08T07:23:40.585Z,94002.46
2019-03-08T07:26:17.340Z,94009.72
2019-03-08T07:29:03.899Z,94014.70
2019-03-08T07:31:57.683Z,94018.37
2019-03-08T07:34:32.052Z,94030.66
2019-03-08T07:37:20.123Z,94036.09
2019-03-08T07:40:15.776Z,94046.67
2019-03-08T07:43:02.143Z,94045.99
2019-03-08T07:45:48.745Z,94051.92
2019-03-08T07:48:39.210Z,94062.83
2019-03-08T07:51:35.970Z,94060.95
2019-03-08T07:54:29.613Z,94071.50
2019-03-08T07:57:24.446Z,94084.20
2019-03-08T08:00:07.562Z,94083.38
2019-03-08T08:02:46.248Z,94075.62
2019-03-08T08:05:22.462Z,94088.13
2019-03-08T08:08:00.830Z,94097.43
2019-03-08T08:10:39.897Z,94103.78
2019-03-08T08:13:26.400Z,94109.24
2019-03-08T08:16:06.547Z,94123.21
2019-03-08T08:18:42.157Z,94124.87
2019-03-08T08:21:19.341Z,94123.29
2019-03-08T08:24:07.429Z,94138.53
2019-03-08T08:26:53.807Z,94142.09
2019-03-08T08:29:50.454Z,94151.48
2019-03-08T08:32:36.559Z,94156.06
2019-03-08T08:35:13.662Z,94154.84
2019-03-08T08:37:53.219Z,94163.91
2019-03-08T08:40:32.930Z,94174.73
2019-03-08T08:43:25.365Z,94184.60
2019-03-08T08:46:07.880Z,94177.50
2019-03-08T08:49:01.669Z,94193.39
2019-03-08T08:51:49.306Z,94191.19
2019-03-08T08:54:36.897Z,94194.17
2019-03-08T08:57:25.840Z,94198.59
2019-03-08T09:00:01.642Z,94208.76
2019-03-08T09:02:58.182Z,94221.03
2019-03-08T09:05:34.584Z,94221.63
2019-03-08T09:08:23.655Z,94226.73
2019-03-08T09:11:20.660Z,94238.05
2019-03-08T09:13:56.308Z,94242.05
2019-03-08T09:16:42.026Z,94246.37
2019-03-08T09:19:18.038Z,94254.27
2019-03-08T09:21:55.603Z,94259.12
2019-03-08T09:24:29.967Z,94259.08
2019-03-08T09:27:13.040Z,94263.16
2019-03-08T09:29:56.288Z,94271.39
2019-03-08T09:32:47.063Z,94273.91
2019-03-08T09:35:26.441Z,94274.34
2019-03-08T09:38:03.341Z,94295.25
2019-03-08T09:40:54.135Z,94293.58
2019-03-08T09:43:44.913Z,94291.39
2019-03-08T09:46:38.460Z,94289.61
2019-03-08T09:49:17.773Z,94298.15
2019-03-08T09:51:53.460Z,94304.20
2019-03-08T09:54:28.987Z,94310.34
2019-03-08T09:57:16.625Z,94309.31
2019-03-08T09:59:56.575Z,94319.36
2019-03-08T10:02:48.406Z,94336.26
2019-03-08T10:05:24.654Z,94332.02
2019-03-08T10:08:10.869Z,94334.12
2019-03-08T10:10:47.123Z,94337.24
2019-03-08T10:13:31.747Z,94346.06
2019-03-08T10:16:04.260Z,94350.78
2019-03-08T10:18:45.829Z,94352.52
2019-03-08T10:21:37.509Z,94347.29
2019-03-08T10:24:21.029Z,94348.44
2019-03-08T10:27:07.141Z,94358.91
2019-03-08T10:30:00.809Z,94365.20
2019-03-08T10:32:51.495Z,94372.34
2019-03-08T10:35:33.790Z,94375.16
2019-03-08T10:38:12.623Z,94375.16
2019-03-08T10:40:48.929Z,94377.92
2019-03-08T10:43:31.359Z,94379.66
2019-03-08T10:46:31.038Z,94389.56
2019-03-08T10:49:12.031Z,94405.13
2019-03-08T10:52:01.488Z,94409.52
2019-03-08T10:54:36.865Z,94408.99
2019-03-08T10:57:15.359Z,94413.06
2019-03-08T10:59:52.587Z,94413.36
2019-03-08T11:02:33.913Z,94413.36
2019-03-08T11:05:08.970Z,94420.36
2019-03-08T11:07:44.075Z,94423.08
2019-03-08T11:10:30.542Z,94424.22
2019-03-08T11:13:29.080Z,94433.66
2019-03-08T11:16:15.126Z,94444.92
2019-03-08T11:19:09.036Z,94442.41
2019-03-08T11:21:59.098Z,94442.88
2019-03-08T11:24:52.932Z,94459.08
2019-03-08T11:27:32.004Z,94458.34
2019-03-08T11:30:25.986Z,94458.34
2019-03-08T11:33:25.926Z,94469.58
2019-03-08T11:36:29.110Z,94469.58
2019-03-08T11:39:12.210Z,94479.86
2019-03-08T11:41:50.284Z,94479.94
2019-03-08T11:44:30.344Z,94478.20
2019-03-08T11:47:23.732Z,94484.44
2019-03-08T11:50:30.082Z,94500.45
2019-03-08T11:53:23.321Z,94508.00
2019-03-08T11:55:58.479Z,94512.49
2019-03-08T11:58:38.477Z,94505.67
2019-03-08T12:01:24.814Z,94514.20
2019-03-08T12:04:11.515Z,94507.67
2019-03-08T12:06:46.752Z,94512.97
2019-03-08T12:09:47.005Z,94517.98
2019-03-08T12:12:40.978Z,94517.31
2019-03-08T12:15:28.790Z,94521.60
2019-03-08T12:18:15.169Z,94521.60
2019-03-08T12:21:06.044Z,94525.95
2019-03-08T12:23:44.080Z,94531.89
2019-03-08T12:26:30.368Z,94532.14
2019-03-08T12:29:21.018Z,94538.77
2019-03-08T12:32:08.370Z,94544.52
2019-03-08T12:34:43.498Z,94544.52
2019-03-08T12:37:26.529Z,94530.75
2019-03-08T12:40:00.655Z,94538.41
2019-03-08T12:42:55.442Z,94543.98
2019-03-08T12:45:39.240Z,94541.84
2019-03-08T12:48:23.602Z,94545.02
2019-03-08T12:51:09.974Z,94545.02
2019-03-08T12:53:56.711Z,94552.03
2019-03-08T12:56:43.044Z,94549.45
2019-03-08T12:59:35.031Z,94559.48
2019-03-08T13:02:15.400Z,94547.63
2019-03-08T13:04:55.901Z,94562.36
2019-03-08T13:07:41.375Z,94554.72
2019-03-08T13:10:13.094Z,94565.98
2019-03-08T13:12:42.088Z,94569.99
2019-03-08T13:15:12.838Z,94576.34
2019-03-08T13:17:41.461Z,94571.43
2019-03-08T13:20:15.495Z,94576.08
2019-03-08T13:22:44.321Z,94589.16
2019-03-08T13:25:13.316Z,94600.69
2019-03-08T13:27:43.283Z,94605.84
2019-03-08T13:30:15.098Z,94613.72
2019-03-08T13:32:44.168Z,94610.89
2019-03-08T13:35:13.229Z,94623.44
2019-03-08T13:37:42.053Z,94619.22
2019-03-08T13:40:11.950Z,94615.17
2019-03-08T13:42:40.536Z,94606.14
2019-03-08T13:45:11.261Z,94597.81
2019-03-08T13:47:39.838Z,94601.61
2019-03-08T13:50:09.432Z,94601.61
2019-03-08T13:52:38.293Z,94596.99
2019-03-08T13:55:09.747Z,94594.74
2019-03-08T13:57:38.704Z,94602.34
2019-03-08T14:00:09.674Z,94596.45
2019-03-08T14:02:38.391Z,94602.44
2019-03-08T14:05:07.481Z,94601.81
2019-03-08T14:07:36.267Z,94598.77
2019-03-08T14:10:05.944Z,94599.94
2019-03-08T14:12:34.675Z,94601.23
2019-03-08T14:15:03.633Z,94592.59
2019-03-08T14:17:32.314Z,94595.14
2019-03-08T14:20:00.908Z,94603.24
2019-03-08T14:22:30.688Z,94593.36
2019-03-08T14:24:59.306Z,94588.19
2019-03-08T14:27:27.917Z,94586.09
2019-03-08T14:29:59.112Z,94588.82
2019-03-08T14:32:27.315Z,94593.71
2019-03-08T14:34:56.256Z,94601.23
2019-03-08T14:37:25.133Z,94589.63
2019-03-08T14:39:54.062Z,94591.20
2019-03-08T14:42:40.430Z,94594.08
2019-03-08T14:45:21.052Z,94596.91
2019-03-08T14:47:52.131Z,94607.09
2019-03-08T14:50:20.711Z,94609.70
2019-03-08T14:52:49.439Z,94612.14
2019-03-08T14:55:18.925Z,94612.55
2019-03-08T14:57:48.476Z,94616.97
2019-03-08T15:00:19.300Z,94615.13
2019-03-08T15:02:48.683Z,94616.38
2019-03-08T15:05:19.081Z,94611.80
2019-03-08T15:07:47.665Z,94611.91
2019-03-08T15:10:17.574Z,94606.64
2019-03-08T15:12:48.976Z,94609.22
2019-03-08T15:15:17.530Z,94607.59
2019-03-08T15:17:49.580Z,94615.88
2019-03-08T15:20:17.482Z,94615.41
2019-03-08T15:22:46.346Z,94623.94
2019-03-08T15:25:15.256Z,94637.16
2019-03-08T15:27:43.879Z,94626.81
2019-03-08T15:30:14.218Z,94642.03
2019-03-08T15:32:42.922Z,94639.83
2019-03-08T15:35:12.223Z,94647.84
2019-03-08T15:37:44.130Z,94649.07
2019-03-08T15:40:13.521Z,94655.72
2019-03-08T15:42:42.401Z,94651.56
2019-03-08T15:45:11.381Z,94657.81
2019-03-08T15:47:40.591Z,94657.08
2019-03-08T15:50:11.549Z,94657.61
2019-03-08T15:52:40.387Z,94665.22
2019-03-08T15:55:09.040Z,94670.02
2019-03-08T15:57:38.312Z,94672.30
2019-03-08T16:00:10.419Z,94672.04
2019-03-08T16:02:39.420Z,94668.89
2019-03-08T16:05:08.557Z,94663.71
2019-03-08T16:07:37.195Z,94659.08
2019-03-08T16:10:07.672Z,94652.69
2019-03-08T16:12:36.294Z,94665.77
2019-03-08T16:15:05.137Z,94671.59
2019-03-08T16:17:34.037Z,94672.30
2019-03-08T16:20:03.855Z,94668.52
2019-03-08T16:22:32.857Z,94679.45
2019-03-08T16:25:01.470Z,94681.65
2019-03-08T16:27:30.260Z,94681.92
2019-03-08T16:30:03.082Z,94677.55
2019-03-08T16:33:03.872Z,94676.45
2019-03-08T16:35:41.079Z,94688.94
2019-03-08T16:38:14.472Z,94684.70
2019-03-08T16:40:50.816Z,94683.63
2019-03-08T16:43:34.598Z,94683.02
2019-03-08T16:46:21.372Z,94692.50
2019-03-08T16:48:58.178Z,94690.27
2019-03-08T16:51:40.726Z,94690.63
2019-03-08T16:54:46.468Z,94690.63
2019-03-08T16:57:21.983Z,94687.70
2019-03-08T17:00:27.533Z,94687.34
2019-03-08T17:03:13.912Z,94684.15
2019-03-08T17:05:55.403Z,94690.58
2019-03-08T17:08:41.692Z,94683.52
2019-03-08T17:11:27.159Z,94688.98
2019-03-08T17:14:14.899Z,94693.65
2019-03-08T17:17:02.169Z,94693.91
2019-03-08T17:19:40.302Z,94686.98
2019-03-08T17:22:21.252Z,94692.19
2019-03-08T17:25:07.378Z,94691.80
2019-03-08T17:27:55.064Z,94689.34
2019-03-08T17:30:51.951Z,94681.37
2019-03-08T17:33:39.595Z,94671.30
2019-03-08T17:36:25.991Z,94678.88
2019-03-08T17:39:17.225Z,94674.48
2019-03-08T17:41:55.878Z,94681.39
2019-03-08T17:44:46.187Z,94680.19
2019-03-08T17:47:28.269Z,94679.54
2019-03-08T17:50:15.921Z,94671.15
2019-03-08T17:53:12.945Z,94667.53
2019-03-08T17:55:49.206Z,94660.47
2019-03-08T17:58:32.784Z,94656.52
2019-03-08T18:01:18.925Z,94657.20
2019-03-08T18:04:09.586Z,94660.41
2019-03-08T18:06:54.977Z,94666.88
2019-03-08T18:09:39.015Z,94662.19
2019-03-08T18:12:25.135Z,94669.20
2019-03-08T18:15:07.858Z,94672.47
2019-03-08T18:17:53.698Z,94666.88
2019-03-08T18:20:50.710Z,94670.03
2019-03-08T18:23:32.267Z,94676.91
2019-03-08T18:26:09.155Z,94678.80
2019-03-08T18:28:56.925Z,94677.09
2019-03-08T18:31:47.116Z,94674.98
2019-03-08T18:34:35.690Z,94677.28
2019-03-08T18:37:26.258Z,94679.47
2019-03-08T18:40:12.790Z,94683.36
2019-03-08T18:42:48.698Z,94684.52
2019-03-08T18:45:33.495Z,94682.44
2019-03-08T18:48:21.145Z,94690.83
2019-03-08T18:51:17.943Z,94690.23
2019-03-08T18:54:04.899Z,94685.73
2019-03-08T18:56:49.065Z,94680.92
2019-03-08T18:59:24.328Z,94679.47
2019-03-08T19:02:30.283Z,94686.73
2019-03-08T19:05:17.290Z,94676.60
2019-03-08T19:07:56.543Z,94667.92
2019-03-08T19:10:38.535Z,94680.13
2019-03-08T19:13:24.975Z,94674.15
2019-03-08T19:15:59.508Z,94677.62
2019-03-08T19:18:44.361Z,94674.14
2019-03-08T19:21:37.825Z,94678.54
2019-03-08T19:24:14.737Z,94684.25
2019-03-08T19:27:14.665Z,94684.52
2019-03-08T19:30:00.981Z,94683.72
2019-03-08T19:33:00.917Z,94683.94
2019-03-08T19:35:47.224Z,94689.55
2019-03-08T19:38:24.787Z,94685.56
2019-03-08T19:41:17.655Z,94687.13
2019-03-08T19:44:11.571Z,94689.45
2019-03-08T19:46:58.017Z,94689.62
2019-03-08T19:49:32.656Z,94676.73
2019-03-08T19:52:19.444Z,94672.52
2019-03-08T19:55:04.306Z,94674.53
2019-03-08T19:57:40.998Z,94681.83
2019-03-08T20:00:22.374Z,94680.63
2019-03-08T20:03:05.277Z,94682.70
2019-03-08T20:05:39.786Z,94675.45
2019-03-08T20:08:22.800Z,94675.44
2019-03-08T20:10:59.139Z,94686.57
2019-03-08T20:13:45.535Z,94697.46
2019-03-08T20:16:25.867Z,94692.83
2019-03-08T20:19:25.839Z,94685.26
2019-03-08T20:22:13.719Z,94678.24
2019-03-08T20:25:00.566Z,94674.14
2019-03-08T20:27:38.148Z,94680.34
2019-03-08T20:30:18.773Z,94690.78
2019-03-08T20:33:08.195Z,94677.97
2019-03-08T20:35:47.777Z,94669.80
2019-03-08T20:38:33.937Z,94665.66
2019-03-08T20:41:19.169Z,94668.02
2019-03-08T20:44:13.047Z,94673.50
2019-03-08T20:46:48.780Z,94674.94
2019-03-08T20:49:17.425Z,94659.35
2019-03-08T20:51:46.025Z,94657.41
2019-03-08T20:54:14.744Z,94665.59
2019-03-08T20:56:43.579Z,94654.08
2019-03-08T20:59:12.216Z,94652.39
2019-03-08T21:01:40.832Z,94648.64
2019-03-08T21:04:09.430Z,94646.42
2019-03-08T21:06:38.423Z,94638.44
2019-03-08T21:09:07.911Z,94625.21
2019-03-08T21:11:36.805Z,94634.73
2019-03-08T21:14:05.408Z,94633.35
2019-03-08T21:16:34.298Z,94642.77
2019-03-08T21:19:02.922Z,94644.30
2019-03-08T21:21:31.994Z,94631.55
2019-03-08T21:24:00.589Z,94631.08
2019-03-08T21:26:29.748Z,94634.45
2019-03-08T21:28:58.667Z,94631.02
2019-03-08T21:31:27.263Z,94629.30
2019-03-08T21:33:56.410Z,94630.35
2019-03-08T21:36:25.080Z,94629.11
2019-03-08T21:38:54.165Z,94628.52
2019-03-08T21:41:22.762Z,94618.16
2019-03-08T21:43:51.354Z,94624.53
2019-03-08T21:46:20.323Z,94621.38
2019-03-08T21:48:49.167Z,94620.48
2019-03-08T21:51:17.853Z,94617.86
2019-03-08T21:53:46.473Z,94614.50
2019-03-08T21:56:15.580Z,94606.17
2019-03-08T21:58:44.206Z,94610.48
2019-03-08T22:01:12.834Z,94604.84
2019-03-08T22:03:43.371Z,94608.81
2019-03-08T22:06:12.515Z,94601.98
2019-03-08T22:08:50.840Z,94592.48
2019-03-08T22:11:32.537Z,94588.08
2019-03-08T22:14:01.423Z,94592.31
2019-03-08T22:16:30.059Z,94586.53
2019-03-08T22:18:58.879Z,94582.72
2019-03-08T22:21:27.733Z,94575.04
2019-03-08T22:23:56.377Z,94571.37
2019-03-08T22:26:25.285Z,94559.56
2019-03-08T22:28:53.904Z,94570.19
2019-03-08T22:31:22.561Z,94555.48
2019-03-08T22:33:51.362Z,94542.16
2019-03-08T22:36:20.344Z,94547.72
2019-03-08T22:38:48.942Z,94540.60
2019-03-08T22:41:17.776Z,94543.50
2019-03-08T22:43:46.415Z,94536.86
2019-03-08T22:46:15.046Z,94528.41
2019-03-08T22:51:04.261Z,94510.03
2019-03-08T22:53:33.275Z,94505.98
2019-03-08T22:56:02.451Z,94491.51
2019-03-08T22:58:31.079Z,94491.16
2019-03-08T23:01:06.449Z,94493.51
2019-03-08T23:03:35.045Z,94490.97
2019-03-08T23:06:03.666Z,94483.35
2019-03-08T23:08:32.700Z,94478.61
2019-03-08T23:11:01.580Z,94477.70
2019-03-08T23:13:30.392Z,94480.20
2019-03-08T23:15:59.308Z,94465.50
2019-03-08T23:18:27.984Z,94472.16
2019-03-08T23:20:56.837Z,94464.23
2019-03-08T23:23:25.591Z,94456.00
2019-03-08T23:25:54.204Z,94468.53
2019-03-08T23:28:40.856Z,94460.37
2019-03-08T23:31:19.015Z,94457.23
2019-03-08T23:33:47.644Z,94465.34
2019-03-08T23:36:17.192Z,94448.01
2019-03-08T23:38:45.770Z,94455.50
2019-03-08T23:41:14.740Z,94451.44
2019-03-08T23:43:43.684Z,94443.25
2019-03-08T23:46:12.305Z,94441.36
2019-03-08T23:48:40.963Z,94437.02
2019-03-08T23:51:09.808Z,94436.01
2019-03-08T23:53:38.412Z,94438.58
2019-03-08T23:56:07.020Z,94442.95
2019-03-08T23:58:35.894Z,94446.31
